Time;durP1;ratioP1;P1;durP2;ratioP2;P2;SDS_P1;SDS_P2;PMS_P1;PMS_P2;Temp;Humidity;BMP_temperature;BMP_pressure;BME280_temperature;BME280_humidity;BME280_pressure;Samples;Min_cycle;Max_cycle;Signal;HPM_P1;HPM_P2
2023/11/11 00:01:16;;;;;;;;;;;;;;;25.53;40.12;93005.00;4973390;28;9612;-64
2023/11/11 00:03:57;;;;;;;;;;;;;;;25.57;40.55;92996.41;4992434;28;8966;-64
2023/11/11 00:06:31;;;;;;;;;;;;;;;25.61;40.46;92996.78;4975943;28;7968;-64
2023/11/11 00:08:58;;;;;;;;;;;;;;;25.64;39.93;93001.94;4992639;28;8267;-64
2023/11/11 00:11:35;;;;;;;;;;;;;;;25.62;40.17;93006.53;5002635;28;7544;-55
2023/11/11 00:14:04;;;;;;;;;;;;;;;25.65;39.95;92997.91;4967434;28;7298;-55
2023/11/11 00:16:32;;;;;;;;;;;;;;;25.66;39.74;92996.63;4991729;28;8510;-55
2023/11/11 00:19:32;;;;;;;;;;;;;;;25.68;39.71;93007.84;4991173;28;7212;-54
2023/11/11 00:22:29;;;;;;;;;;;;;;;25.64;40.04;92996.44;4948510;28;7217;-54
2023/11/11 00:25:06;;;;;;;;;;;;;;;25.68;39.99;93002.34;4946426;28;7537;-55
2023/11/11 00:27:44;;;;;;;;;;;;;;;25.68;40.24;93007.84;4936048;28;7271;-55
2023/11/11 00:30:13;;;;;;;;;;;;;;;25.68;39.44;93007.84;4934514;28;7067;-55
2023/11/11 00:32:39;;;;;;;;;;;;;;;25.67;39.91;93003.59;4934119;28;7373;-55
2023/11/11 00:35:07;;;;;;;;;;;;;;;25.60;40.43;93012.56;4942450;28;9060;-54
2023/11/11 00:37:51;;;;;;;;;;;;;;;25.60;40.07;93009.09;4945624;28;7252;-55
2023/11/11 00:40:22;;;;;;;;;;;;;;;25.54;40.20;93022.25;4940920;28;7405;-55
2023/11/11 00:43:04;;;;;;;;;;;;;;;25.58;39.82;93009.59;4953124;28;7041;-54
2023/11/11 00:45:38;;;;;;;;;;;;;;;25.59;39.55;93016.59;4934626;29;7103;-54
2023/11/11 00:48:19;;;;;;;;;;;;;;;25.54;39.71;93023.00;4943658;28;7219;-54
2023/11/11 00:50:54;;;;;;;;;;;;;;;25.57;40.33;93024.66;4930747;28;7326;-54
2023/11/11 00:53:53;;;;;;;;;;;;;;;25.55;39.66;93026.50;4919395;29;9148;-55
2023/11/11 00:56:44;;;;;;;;;;;;;;;25.55;40.40;93032.00;4917434;29;9226;-55
2023/11/11 00:59:54;;;;;;;;;;;;;;;25.51;40.38;93031.59;4951098;29;7267;-54
2023/11/11 01:02:33;;;;;;;;;;;;;;;25.50;40.54;93049.41;4898256;29;6989;-55
2023/11/11 01:04:59;;;;;;;;;;;;;;;25.50;40.43;93052.88;4888453;29;6994;-55
2023/11/11 01:07:25;;;;;;;;;;;;;;;25.48;40.45;93049.94;4894925;29;7121;-55
2023/11/11 01:09:52;;;;;;;;;;;;;;;25.47;40.13;93061.50;4908144;29;9259;-55
2023/11/11 01:12:22;;;;;;;;;;;;;;;25.43;40.17;93064.59;4913589;29;7203;-55
2023/11/11 01:15:18;;;;;;;;;;;;;;;25.43;40.42;93070.09;4903138;29;7287;-55
2023/11/11 01:17:56;;;;;;;;;;;;;;;25.39;40.09;93075.91;4894901;29;7255;-55
2023/11/11 01:20:31;;;;;;;;;;;;;;;25.39;40.47;93086.94;4899251;29;9453;-55
2023/11/11 01:22:57;;;;;;;;;;;;;;;25.38;40.43;93079.22;4893213;29;9077;-55
2023/11/11 01:25:23;;;;;;;;;;;;;;;25.37;39.89;93089.50;4880858;29;7245;-54
2023/11/11 01:27:52;;;;;;;;;;;;;;;25.34;40.47;93084.31;4878803;29;7070;-54
2023/11/11 01:30:19;;;;;;;;;;;;;;;25.33;40.11;93089.09;4877247;29;8793;-55
2023/11/11 01:33:16;;;;;;;;;;;;;;;25.33;40.84;93102.88;4912044;29;7230;-55
2023/11/11 01:35:43;;;;;;;;;;;;;;;25.32;39.91;93103.38;4933526;29;9011;-55
2023/11/11 01:38:09;;;;;;;;;;;;;;;25.28;40.52;93098.22;4922406;28;7256;-55
2023/11/11 01:41:08;;;;;;;;;;;;;;;25.31;40.38;93101.91;4951216;28;9046;-54
2023/11/11 01:43:35;;;;;;;;;;;;;;;25.29;41.23;93104.47;4922181;29;7286;-54
2023/11/11 01:46:05;;;;;;;;;;;;;;;25.27;40.02;93104.28;4931590;28;7139;-55
2023/11/11 01:48:38;;;;;;;;;;;;;;;25.28;40.50;93103.00;4946278;28;7181;-54
2023/11/11 01:51:17;;;;;;;;;;;;;;;25.29;40.50;93115.50;4945857;28;8767;-55
2023/11/11 01:54:16;;;;;;;;;;;;;;;25.29;40.82;93094.19;4971190;28;7321;-54
2023/11/11 01:57:16;;;;;;;;;;;;;;;25.31;39.96;93104.69;4986381;28;7192;-54
2023/11/11 01:59:59;;;;;;;;;;;;;;;25.29;40.42;93107.94;4935959;29;7277;-55
2023/11/11 02:02:25;;;;;;;;;;;;;;;25.31;39.96;93115.69;4927711;29;7147;-54
2023/11/11 02:05:03;;;;;;;;;;;;;;;25.33;40.57;93119.38;4916504;29;7189;-55
2023/11/11 02:07:44;;;;;;;;;;;;;;;25.30;40.00;93125.94;4927994;29;7255;-55
2023/11/11 02:10:13;;;;;;;;;;;;;;;25.30;40.38;93133.47;4918552;29;7182;-54
2023/11/11 02:12:40;;;;;;;;;;;;;;;25.29;39.85;93126.50;4932006;29;9228;-55
2023/11/11 02:18:42;;;;;;;;;;;;;;;25.25;40.93;93120.59;4932087;29;7072;-54
2023/11/11 02:21:08;;;;;;;;;;;;;;;25.28;40.82;93127.75;4934904;29;7422;-55
2023/11/11 02:23:48;;;;;;;;;;;;;;;25.31;40.29;93132.19;4936954;29;7222;-54
2023/11/11 02:26:19;;;;;;;;;;;;;;;25.30;40.57;93145.22;4917598;29;9382;-55
2023/11/11 02:29:08;;;;;;;;;;;;;;;25.31;40.71;93149.44;4917024;29;7281;-55
2023/11/11 02:31:48;;;;;;;;;;;;;;;25.29;40.88;93143.00;4943640;28;7164;-59
2023/11/11 02:34:33;;;;;;;;;;;;;;;25.28;40.75;93150.53;4990700;28;7009;-58
2023/11/11 02:37:07;;;;;;;;;;;;;;;25.29;40.40;93145.75;5030683;28;7003;-58
2023/11/11 02:39:35;;;;;;;;;;;;;;;25.26;40.20;93155.81;5040823;28;9122;-59
2023/11/11 02:42:06;;;;;;;;;;;;;;;25.26;39.78;93150.31;5037177;28;9136;-58
2023/11/11 02:44:33;;;;;;;;;;;;;;;25.24;40.60;93157.63;5042735;28;8724;-59
2023/11/11 02:46:58;;;;;;;;;;;;;;;25.23;40.35;93158.91;5049420;28;7384;-59
2023/11/11 02:49:33;;;;;;;;;;;;;;;25.24;39.98;93163.13;5039983;28;7056;-59
2023/11/11 02:52:00;;;;;;;;;;;;;;;25.24;40.85;93168.63;5034409;28;9297;-59
2023/11/11 02:54:37;;;;;;;;;;;;;;;25.24;40.51;93166.63;5044634;28;7482;-59
2023/11/11 02:57:25;;;;;;;;;;;;;;;25.27;40.61;93178.59;5053447;28;7290;-59
2023/11/11 02:59:56;;;;;;;;;;;;;;;25.22;40.99;93160.94;5034278;28;7237;-59
2023/11/11 03:02:35;;;;;;;;;;;;;;;25.25;39.90;93159.84;5046726;28;7069;-59
2023/11/11 03:05:01;;;;;;;;;;;;;;;25.23;40.04;93162.41;5045039;28;7278;-59
2023/11/11 03:07:34;;;;;;;;;;;;;;;25.24;40.41;93163.13;5041648;28;8808;-59
2023/11/11 03:10:52;;;;;;;;;;;;;;;25.23;39.95;93167.91;5038570;28;7356;-59
2023/11/11 03:13:37;;;;;;;;;;;;;;;25.24;40.94;93176.91;4974916;28;7220;-59
2023/11/11 03:16:05;;;;;;;;;;;;;;;25.19;40.38;93166.75;5000084;28;6995;-59
2023/11/11 03:22:43;;;;;;;;;;;;;;;25.24;40.50;93185.16;4999722;28;7342;-58
2023/11/11 03:25:29;;;;;;;;;;;;;;;25.22;40.81;93182.19;4980613;28;7458;-58
2023/11/11 03:27:57;;;;;;;;;;;;;;;25.21;40.17;93177.97;4987565;28;7351;-59
2023/11/11 03:30:41;;;;;;;;;;;;;;;25.21;40.86;93180.72;4989622;28;8787;-59
2023/11/11 03:33:08;;;;;;;;;;;;;;;25.16;40.64;93168.59;4992510;28;8774;-59
2023/11/11 03:35:45;;;;;;;;;;;;;;;25.18;40.77;93173.56;4991749;28;7136;-59
2023/11/11 03:38:21;;;;;;;;;;;;;;;25.23;40.74;93175.41;4984369;28;7339;-59
2023/11/11 03:40:49;;;;;;;;;;;;;;;25.18;40.63;93184.56;4985334;28;7221;-59
2023/11/11 03:43:26;;;;;;;;;;;;;;;25.20;40.07;93185.50;4981474;28;7314;-51
2023/11/11 03:45:54;;;;;;;;;;;;;;;25.18;40.16;93187.31;4982326;28;9159;-52
2023/11/11 03:48:24;;;;;;;;;;;;;;;25.19;40.30;93188.78;4989503;28;8718;-52
2023/11/11 03:51:03;;;;;;;;;;;;;;;25.18;40.45;93190.06;5034703;28;9141;-52
2023/11/11 03:53:32;;;;;;;;;;;;;;;25.18;40.78;93187.31;5035281;28;9406;-52
2023/11/11 03:56:02;;;;;;;;;;;;;;;25.18;40.33;93188.06;5046157;28;9370;-52
2023/11/11 03:58:28;;;;;;;;;;;;;;;25.15;40.11;93186.38;5029240;28;7199;-52
2023/11/11 04:01:00;;;;;;;;;;;;;;;25.16;40.68;93193.34;5036550;28;9464;-53
2023/11/11 04:03:39;;;;;;;;;;;;;;;25.17;40.25;93202.31;5047564;28;7248;-53
2023/11/11 04:06:11;;;;;;;;;;;;;;;25.18;40.35;93192.81;5016995;28;9153;-52
2023/11/11 04:08:58;;;;;;;;;;;;;;;25.19;40.61;93208.03;5035568;28;7998;-51
2023/11/11 04:11:24;;;;;;;;;;;;;;;25.18;39.91;93203.81;5050790;28;7234;-51
2023/11/11 04:14:28;;;;;;;;;;;;;;;25.17;40.43;93208.56;5029155;28;7510;-51
2023/11/11 04:16:57;;;;;;;;;;;;;;;25.19;40.40;93217.03;5048069;28;8604;-52
2023/11/11 04:19:31;;;;;;;;;;;;;;;25.18;40.51;93221.06;5041029;28;7016;-52
2023/11/11 04:22:27;;;;;;;;;;;;;;;25.18;39.92;93231.34;5023240;28;7072;-52
2023/11/11 04:25:12;;;;;;;;;;;;;;;25.18;40.74;93231.34;4971840;28;7004;-51
2023/11/11 04:27:40;;;;;;;;;;;;;;;25.15;40.82;93232.41;4957709;28;7501;-52
2023/11/11 04:30:37;;;;;;;;;;;;;;;25.18;40.67;93247.84;4973572;28;8202;-52
2023/11/11 04:33:20;;;;;;;;;;;;;;;25.19;40.48;93252.81;4905006;29;7272;-52
2023/11/11 04:35:46;;;;;;;;;;;;;;;25.19;40.60;93243.81;4909004;29;9042;-52
2023/11/11 04:38:12;;;;;;;;;;;;;;;25.19;40.47;93250.06;4911016;29;9346;-50
2023/11/11 04:41:17;;;;;;;;;;;;;;;25.21;40.85;93236.50;4897877;29;7141;-52
2023/11/11 04:44:08;;;;;;;;;;;;;;;25.23;40.20;93238.69;4809661;29;7224;-52
2023/11/11 04:46:48;;;;;;;;;;;;;;;25.22;39.95;93257.25;4818487;29;8827;-52
2023/11/11 04:49:33;;;;;;;;;;;;;;;25.19;40.20;93257.56;4821121;29;9097;-52
2023/11/11 04:52:09;;;;;;;;;;;;;;;25.18;39.74;93261.59;4807240;29;7070;-58
2023/11/11 04:58:39;;;;;;;;;;;;;;;25.17;40.41;93271.88;4803342;29;9072;-57
2023/11/11 05:01:44;;;;;;;;;;;;;;;25.15;39.83;93279.91;4810268;29;7237;-58
2023/11/11 05:04:37;;;;;;;;;;;;;;;25.15;40.04;93279.91;4840409;29;7246;-57
2023/11/11 05:07:21;;;;;;;;;;;;;;;25.14;40.15;93281.19;4831112;29;7219;-57
2023/11/11 05:09:54;;;;;;;;;;;;;;;25.13;40.69;93274.22;4851803;29;8862;-57
2023/11/11 05:12:39;;;;;;;;;;;;;;;25.13;40.73;93278.97;4869312;29;7016;-57
2023/11/11 05:15:14;;;;;;;;;;;;;;;25.12;40.10;93288.50;4858118;29;8621;-58
2023/11/11 05:17:44;;;;;;;;;;;;;;;25.13;40.63;93292.72;4905220;29;7062;-57
2023/11/11 05:20:45;;;;;;;;;;;;;;;25.13;40.84;93292.72;4908557;29;8602;-58
2023/11/11 05:23:13;;;;;;;;;;;;;;;25.12;40.19;93291.25;4934257;29;7034;-58
2023/11/11 05:26:08;;;;;;;;;;;;;;;25.11;40.08;93287.75;4949433;29;9177;-58
2023/11/11 05:28:34;;;;;;;;;;;;;;;25.14;40.07;93303.19;4916491;29;9348;-58
2023/11/11 05:31:31;;;;;;;;;;;;;;;25.13;40.03;93301.72;4915857;29;7373;-57
2023/11/11 05:33:58;;;;;;;;;;;;;;;25.13;39.96;93300.97;4892715;29;8918;-57
2023/11/11 05:36:25;;;;;;;;;;;;;;;25.13;39.87;93298.97;4910392;29;9137;-57
2023/11/11 05:38:51;;;;;;;;;;;;;;;25.14;39.93;93305.22;4902379;29;7282;-57
2023/11/11 05:41:22;;;;;;;;;;;;;;;25.12;40.26;93313.28;4910535;29;8162;-57
2023/11/11 05:43:59;;;;;;;;;;;;;;;25.11;40.34;93311.78;4904049;29;7054;-57
2023/11/11 05:46:43;;;;;;;;;;;;;;;25.12;40.48;93316.75;4894579;29;7244;-58
2023/11/11 05:49:10;;;;;;;;;;;;;;;25.12;40.14;93325.00;4909716;29;6961;-57
2023/11/11 05:51:48;;;;;;;;;;;;;;;25.12;41.01;93316.03;4912113;29;8985;-58
2023/11/11 05:54:19;;;;;;;;;;;;;;;25.11;40.79;93322.78;4894860;29;9207;-58
2023/11/11 05:56:44;;;;;;;;;;;;;;;25.13;40.41;93329.25;4909344;29;8925;-58
2023/11/11 05:59:10;;;;;;;;;;;;;;;25.14;41.05;93332.75;4883884;29;6975;-58
2023/11/11 06:01:43;;;;;;;;;;;;;;;25.13;40.33;93331.25;4914548;29;8808;-55
2023/11/11 06:04:48;;;;;;;;;;;;;;;25.13;40.42;93334.00;4919380;29;7058;-54
2023/11/11 06:07:35;;;;;;;;;;;;;;;25.13;40.96;93340.25;4952825;28;9106;-55
2023/11/11 06:10:44;;;;;;;;;;;;;;;25.14;41.13;93341.00;4969477;28;7077;-55
2023/11/11 06:13:12;;;;;;;;;;;;;;;25.13;40.48;93350.50;5008405;28;9336;-55
2023/11/11 06:15:40;;;;;;;;;;;;;;;25.12;40.67;93354.53;4994834;28;7165;-55
2023/11/11 06:18:27;;;;;;;;;;;;;;;25.11;40.93;93351.03;4987704;28;7240;-55
2023/11/11 06:21:42;;;;;;;;;;;;;;;25.16;40.74;93360.47;4994951;28;7251;-54
2023/11/11 06:24:10;;;;;;;;;;;;;;;25.14;41.16;93369.22;4991940;28;7213;-54
2023/11/11 06:26:50;;;;;;;;;;;;;;;25.15;40.54;93375.47;4985124;28;7261;-54
2023/11/11 06:29:37;;;;;;;;;;;;;;;25.18;40.88;93382.69;4993864;28;7274;-54
2023/11/11 06:32:05;;;;;;;;;;;;;;;25.20;41.19;93380.13;5020377;28;8065;-55
2023/11/11 06:34:34;;;;;;;;;;;;;;;25.19;40.42;93392.41;4997554;28;6994;-55
2023/11/11 06:37:01;;;;;;;;;;;;;;;25.16;40.94;93391.47;4992198;28;7257;-55
2023/11/11 06:39:37;;;;;;;;;;;;;;;25.19;40.98;93400.66;5037471;28;7272;-55
2023/11/11 06:42:15;;;;;;;;;;;;;;;25.18;40.17;93402.69;5030725;28;7028;-54
2023/11/11 06:44:59;;;;;;;;;;;;;;;25.19;40.94;93403.41;5039372;28;6863;-55
2023/11/11 06:47:28;;;;;;;;;;;;;;;25.18;40.01;93399.19;5045146;28;9069;-55
2023/11/11 06:50:37;;;;;;;;;;;;;;;25.18;40.74;93399.19;5038507;28;7017;-55
2023/11/11 06:53:12;;;;;;;;;;;;;;;25.18;40.64;93401.94;5050098;28;8977;-54
2023/11/11 06:55:53;;;;;;;;;;;;;;;25.19;40.68;93415.16;5037819;28;7026;-54
2023/11/11 06:58:21;;;;;;;;;;;;;;;25.17;40.31;93414.22;5050026;28;9036;-55
2023/11/11 07:00:47;;;;;;;;;;;;;;;25.18;40.34;93407.44;5037940;28;6987;-55
2023/11/11 07:03:36;;;;;;;;;;;;;;;25.18;41.51;93415.69;5055150;28;7324;-55
2023/11/11 07:06:27;;;;;;;;;;;;;;;25.25;41.39;93404.78;5058521;28;7185;-54
2023/11/11 07:08:59;;;;;;;;;;;;;;;25.31;41.44;93405.41;5041226;28;7192;-55
2023/11/11 07:11:30;;;;;;;;;;;;;;;25.32;40.50;93408.88;5036926;28;7080;-58
2023/11/11 07:14:00;;;;;;;;;;;;;;;25.33;40.81;93408.38;5049274;28;7225;-61
2023/11/11 07:16:37;;;;;;;;;;;;;;;25.34;40.99;93409.09;5049092;28;8853;-61
2023/11/11 07:19:03;;;;;;;;;;;;;;;25.41;40.72;93413.97;5050250;28;9382;-62
2023/11/11 07:21:47;;;;;;;;;;;;;;;25.49;40.44;93420.31;5040859;28;7289;-60
2023/11/11 07:24:25;;;;;;;;;;;;;;;25.55;40.90;93420.22;5036171;28;8733;-61
2023/11/11 07:26:52;;;;;;;;;;;;;;;25.58;40.87;93430.88;5048751;28;9320;-61
2023/11/11 07:29:18;;;;;;;;;;;;;;;25.56;40.58;93436.19;5054057;28;7147;-61
2023/11/11 07:31:46;;;;;;;;;;;;;;;25.59;40.63;93451.66;5032758;28;7243;-61
2023/11/11 07:34:20;;;;;;;;;;;;;;;25.62;39.87;93447.09;5033528;28;7263;-60
2023/11/11 07:36:46;;;;;;;;;;;;;;;25.58;40.77;93447.41;5040345;28;6999;-61
2023/11/11 07:39:14;;;;;;;;;;;;;;;25.63;40.42;93456.81;5035008;28;7350;-60
2023/11/11 07:41:40;;;;;;;;;;;;;;;25.63;39.96;93457.56;5028032;28;8654;-61
2023/11/11 07:44:24;;;;;;;;;;;;;;;25.60;40.35;93464.13;5039412;28;7213;-61
2023/11/11 07:47:18;;;;;;;;;;;;;;;25.62;40.76;93472.59;5025081;28;9679;-61
2023/11/11 07:49:43;;;;;;;;;;;;;;;25.63;40.17;93465.84;5041741;28;7252;-60
2023/11/11 07:52:10;;;;;;;;;;;;;;;25.62;40.01;93469.84;5047626;28;7421;-61
2023/11/11 07:55:01;;;;;;;;;;;;;;;25.63;40.77;93467.84;5053193;28;7978;-60
2023/11/11 07:57:33;;;;;;;;;;;;;;;25.62;40.34;93467.09;5049386;28;7246;-60
2023/11/11 08:00:33;;;;;;;;;;;;;;;25.61;39.97;93473.88;5030618;28;7248;-60
2023/11/11 08:03:08;;;;;;;;;;;;;;;25.63;40.25;93473.34;4973147;28;8768;-60
2023/11/11 08:05:47;;;;;;;;;;;;;;;25.67;40.34;93477.25;4990263;28;7528;-61
2023/11/11 08:08:13;;;;;;;;;;;;;;;25.68;40.61;93484.25;4975960;28;7220;-60
2023/11/11 08:10:57;;;;;;;;;;;;;;;25.68;39.91;93478.75;4992713;28;8735;-60
2023/11/11 08:14:18;;;;;;;;;;;;;;;25.68;40.45;93481.50;4959770;28;6965;-60
2023/11/11 08:17:21;;;;;;;;;;;;;;;25.72;40.72;93487.41;4935318;28;7259;-60
2023/11/11 08:20:05;;;;;;;;;;;;;;;25.73;40.46;93475.13;4940929;28;7290;-60
2023/11/11 08:22:45;;;;;;;;;;;;;;;25.73;40.13;93485.41;4908973;29;7268;-61
2023/11/11 08:25:50;;;;;;;;;;;;;;;25.70;40.14;93489.97;4934383;29;8780;-61
2023/11/11 08:28:27;;;;;;;;;;;;;;;25.67;40.97;93480.00;4933848;28;8802;-61
2023/11/11 08:30:53;;;;;;;;;;;;;;;25.71;39.96;93482.47;4937555;28;8694;-61
2023/11/11 08:33:20;;;;;;;;;;;;;;;25.74;40.77;93487.63;4928430;28;7342;-61
2023/11/11 08:35:50;;;;;;;;;;;;;;;25.71;40.22;93483.19;4933548;29;6968;-61
2023/11/11 08:38:18;;;;;;;;;;;;;;;25.70;40.58;93486.47;4924359;28;6992;-61
2023/11/11 08:40:55;;;;;;;;;;;;;;;25.70;40.42;93484.47;4964051;28;7184;-61
2023/11/11 08:43:56;;;;;;;;;;;;;;;25.69;40.15;93480.22;4980500;28;8839;-61
2023/11/11 08:46:23;;;;;;;;;;;;;;;25.68;40.30;93481.50;4953904;28;7254;-61
2023/11/11 08:49:02;;;;;;;;;;;;;;;25.66;40.72;93484.06;4970367;28;7234;-61
2023/11/11 08:51:37;;;;;;;;;;;;;;;25.68;40.27;93484.25;5010655;28;7069;-61
2023/11/11 08:54:36;;;;;;;;;;;;;;;25.71;40.89;93479.69;5008481;28;8165;-62
2023/11/11 08:57:13;;;;;;;;;;;;;;;25.69;40.33;93476.72;4936521;29;7343;-62
2023/11/11 08:59:52;;;;;;;;;;;;;;;25.68;40.88;93470.50;4936321;29;8448;-62
2023/11/11 09:02:26;;;;;;;;;;;;;;;25.68;41.13;93464.97;4944699;28;8209;-62
2023/11/11 09:05:04;;;;;;;;;;;;;;;25.70;40.99;93481.72;4950102;28;6976;-61
2023/11/11 09:07:46;;;;;;;;;;;;;;;25.75;40.84;93471.84;4945021;29;7367;-62
2023/11/11 09:10:46;;;;;;;;;;;;;;;25.80;40.58;93482.00;4941772;29;9203;-61
2023/11/11 09:13:52;;;;;;;;;;;;;;;25.82;41.00;93485.69;4897003;29;7772;-62
2023/11/11 09:16:18;;;;;;;;;;;;;;;25.82;40.53;93477.44;4905945;29;7110;-63
2023/11/11 09:18:57;;;;;;;;;;;;;;;25.85;40.96;93473.63;4910026;29;7328;-63
2023/11/11 09:21:42;;;;;;;;;;;;;;;25.83;40.68;93476.16;4918158;29;7355;-62
2023/11/11 09:24:34;;;;;;;;;;;;;;;25.84;40.38;93476.88;4913935;29;7081;-63
2023/11/11 09:27:20;;;;;;;;;;;;;;;25.82;40.50;93482.94;4927518;29;7156;-62
2023/11/11 09:29:58;;;;;;;;;;;;;;;25.80;40.78;93485.50;4929816;29;9338;-62
2023/11/11 09:32:25;;;;;;;;;;;;;;;25.75;41.40;93482.88;4946183;28;9202;-55
2023/11/11 09:35:04;;;;;;;;;;;;;;;25.76;40.78;93487.84;4961991;28;8856;-55
2023/11/11 09:37:36;;;;;;;;;;;;;;;25.72;40.71;93489.44;4979195;28;7853;-55
2023/11/11 09:40:11;;;;;;;;;;;;;;;25.74;41.03;93495.91;4974519;28;9325;-55
2023/11/11 09:43:33;;;;;;;;;;;;;;;25.74;41.09;93503.41;4963288;28;8821;-55
2023/11/11 09:46:16;;;;;;;;;;;;;;;25.68;40.46;93503.53;4896560;29;7207;-55
2023/11/11 09:48:53;;;;;;;;;;;;;;;25.71;40.77;93502.44;4944008;28;8978;-55
2023/11/11 09:51:24;;;;;;;;;;;;;;;25.70;40.77;93503.00;4966916;28;7453;-55
2023/11/11 09:53:55;;;;;;;;;;;;;;;25.66;41.09;93505.34;4965793;28;7390;-55
2023/11/11 09:56:43;;;;;;;;;;;;;;;25.69;40.81;93510.50;4975828;28;10424;-55
2023/11/11 09:59:24;;;;;;;;;;;;;;;25.71;40.71;93501.72;4983348;28;9156;-55
2023/11/11 10:01:51;;;;;;;;;;;;;;;25.74;41.33;93512.41;4977386;28;7842;-55
2023/11/11 10:04:24;;;;;;;;;;;;;;;25.74;41.55;93512.41;4968394;28;7260;-55
2023/11/11 10:06:53;;;;;;;;;;;;;;;25.76;41.48;93504.34;4986621;28;9252;-55
2023/11/11 10:09:19;;;;;;;;;;;;;;;25.79;41.21;93505.31;4963398;28;7262;-55
2023/11/11 10:11:49;;;;;;;;;;;;;;;25.77;40.52;93500.34;4965865;28;7233;-54
2023/11/11 10:14:50;;;;;;;;;;;;;;;25.74;40.46;93495.91;4987105;28;7375;-54
2023/11/11 10:17:22;;;;;;;;;;;;;;;25.77;40.41;93505.84;4941637;28;7321;-54
2023/11/11 10:19:51;;;;;;;;;;;;;;;25.80;40.35;93506.78;4961098;28;7049;-54
2023/11/11 10:22:41;;;;;;;;;;;;;;;25.81;40.46;93509.03;4995908;28;7183;-55
2023/11/11 10:25:10;;;;;;;;;;;;;;;25.80;40.77;93504.78;5006434;28;8793;-55
2023/11/11 10:27:36;;;;;;;;;;;;;;;25.78;40.32;93507.31;4992410;28;7111;-54
2023/11/11 10:30:03;;;;;;;;;;;;;;;25.78;40.35;93507.31;5014052;28;7303;-54
2023/11/11 10:32:29;;;;;;;;;;;;;;;25.75;40.18;93497.34;4998106;28;7070;-54
2023/11/11 10:35:24;;;;;;;;;;;;;;;25.77;39.90;93499.59;5014530;28;6989;-54
2023/11/11 10:38:04;;;;;;;;;;;;;;;25.76;40.30;93498.84;5012186;28;8750;-54
2023/11/11 10:40:41;;;;;;;;;;;;;;;25.71;40.55;93499.69;5011545;28;8854;-54
2023/11/11 10:43:37;;;;;;;;;;;;;;;25.68;40.01;93497.28;4997274;28;7321;-59
2023/11/11 10:46:48;;;;;;;;;;;;;;;25.66;41.13;93495.06;4998368;28;7554;-60
2023/11/11 10:49:36;;;;;;;;;;;;;;;25.60;40.26;93494.41;4910134;29;7284;-60
2023/11/11 10:52:37;;;;;;;;;;;;;;;25.61;40.83;93495.16;4925288;28;8681;-60
2023/11/11 10:55:42;;;;;;;;;;;;;;;25.65;40.55;93499.09;4956776;28;8942;-60
2023/11/11 10:58:19;;;;;;;;;;;;;;;25.59;40.23;93495.72;4972546;28;7812;-60
2023/11/11 11:00:58;;;;;;;;;;;;;;;25.58;40.58;93496.25;4962012;28;7398;-61
2023/11/11 11:03:27;;;;;;;;;;;;;;;25.56;40.50;93496.75;4972812;28;8914;-61
2023/11/11 11:06:37;;;;;;;;;;;;;;;25.58;40.45;93502.47;4954777;28;6980;-60
2023/11/11 11:09:18;;;;;;;;;;;;;;;25.67;41.14;93502.03;4894585;29;6865;-61
2023/11/11 11:11:58;;;;;;;;;;;;;;;25.73;40.55;93502.66;4884912;29;7258;-60
2023/11/11 11:14:55;;;;;;;;;;;;;;;25.77;40.27;93496.84;4894386;29;6999;-61
2023/11/11 11:17:56;;;;;;;;;;;;;;;25.80;41.06;93504.78;4890890;29;7469;-61
2023/11/11 11:20:37;;;;;;;;;;;;;;;25.81;40.65;93491.75;4902862;29;7359;-60
2023/11/11 11:23:10;;;;;;;;;;;;;;;25.85;41.15;93497.66;4872321;29;7343;-60
2023/11/11 11:25:50;;;;;;;;;;;;;;;25.88;40.27;93497.31;4897436;29;8913;-60
2023/11/11 11:28:25;;;;;;;;;;;;;;;25.85;39.73;93492.91;4906748;29;7070;-61
2023/11/11 11:30:55;;;;;;;;;;;;;;;25.81;40.35;93495.25;4925163;28;7242;-61
2023/11/11 11:33:32;;;;;;;;;;;;;;;25.79;40.25;93492.28;4957839;28;7329;-61
2023/11/11 11:36:50;;;;;;;;;;;;;;;25.79;40.20;93483.28;4954605;28;9092;-61
2023/11/11 11:39:18;;;;;;;;;;;;;;;25.73;40.10;93482.66;4896859;29;7192;-61
2023/11/11 11:42:18;;;;;;;;;;;;;;;25.75;39.86;93491.84;4893755;29;8266;-61
2023/11/11 11:45:22;;;;;;;;;;;;;;;25.77;40.58;93483.06;4879795;28;9244;-61
2023/11/11 11:48:09;;;;;;;;;;;;;;;25.78;39.76;93482.53;4947019;28;7056;-61
2023/11/11 11:50:36;;;;;;;;;;;;;;;25.77;40.09;93483.81;4976646;28;6990;-61
2023/11/11 11:53:21;;;;;;;;;;;;;;;25.78;39.73;93496.31;4956657;28;7154;-65
2023/11/11 11:56:06;;;;;;;;;;;;;;;25.77;40.03;93497.59;4977287;28;7554;-66
2023/11/11 11:59:01;;;;;;;;;;;;;;;25.78;40.21;93506.56;4969787;28;7298;-66
2023/11/11 12:01:32;;;;;;;;;;;;;;;25.77;40.64;93505.84;4971909;28;7405;-66
2023/11/11 12:04:09;;;;;;;;;;;;;;;25.77;40.01;93505.84;4963669;28;7060;-66
2023/11/11 12:06:53;;;;;;;;;;;;;;;25.79;40.35;93508.06;4948451;28;7238;-66
2023/11/11 12:09:54;;;;;;;;;;;;;;;25.78;40.51;93512.81;4950603;28;9087;-66
2023/11/11 12:12:47;;;;;;;;;;;;;;;25.77;40.59;93511.38;4967393;28;7321;-66
2023/11/11 12:15:22;;;;;;;;;;;;;;;25.76;40.17;93506.38;4954309;28;6999;-66
2023/11/11 12:18:25;;;;;;;;;;;;;;;25.77;40.38;93511.38;4975670;28;8861;-66
2023/11/11 12:21:00;;;;;;;;;;;;;;;25.77;40.16;93516.88;4970819;28;7004;-65
2023/11/11 12:23:28;;;;;;;;;;;;;;;25.78;40.24;93512.09;4958634;28;7247;-66
2023/11/11 12:25:56;;;;;;;;;;;;;;;25.78;40.20;93515.59;4955354;28;7308;-66
2023/11/11 12:28:31;;;;;;;;;;;;;;;25.76;40.28;93512.63;4969196;28;9503;-66
2023/11/11 12:31:05;;;;;;;;;;;;;;;25.81;39.88;93513.78;4960393;28;9272;-66
2023/11/11 12:33:44;;;;;;;;;;;;;;;25.78;39.53;93514.84;4949761;28;7093;-66
2023/11/11 12:36:20;;;;;;;;;;;;;;;25.75;39.02;93508.38;4968204;28;8756;-67
2023/11/11 12:38:47;;;;;;;;;;;;;;;25.72;39.34;93508.72;4958198;28;7131;-66
2023/11/11 12:41:37;;;;;;;;;;;;;;;25.72;39.63;93522.47;4968855;28;7427;-66
2023/11/11 12:44:05;;;;;;;;;;;;;;;25.71;39.05;93512.75;4950693;28;9250;-66
2023/11/11 12:46:32;;;;;;;;;;;;;;;25.68;39.51;93509.03;4956764;28;7442;-66
2023/11/11 12:49:15;;;;;;;;;;;;;;;25.71;39.58;93510.00;4971871;28;9155;-66
2023/11/11 12:51:42;;;;;;;;;;;;;;;25.73;39.75;93516.44;4993365;28;9185;-67
2023/11/11 12:54:13;;;;;;;;;;;;;;;25.69;39.53;93510.50;5034515;28;8778;-67
2023/11/11 12:56:52;;;;;;;;;;;;;;;25.71;39.54;93515.50;5033182;28;7255;-67
2023/11/11 12:59:31;;;;;;;;;;;;;;;25.71;39.49;93516.22;5042632;28;8570;-66
2023/11/11 13:02:03;;;;;;;;;;;;;;;25.71;39.61;93505.22;5033331;28;7213;-62
2023/11/11 13:04:38;;;;;;;;;;;;;;;25.71;39.30;93498.97;5037860;28;7022;-62
2023/11/11 13:07:30;;;;;;;;;;;;;;;25.72;40.17;93500.44;5036676;28;9153;-62
2023/11/11 13:10:22;;;;;;;;;;;;;;;25.71;40.07;93502.44;5038343;28;9060;-62
2023/11/11 13:13:06;;;;;;;;;;;;;;;25.71;39.90;93493.47;5026080;28;7242;-62
2023/11/11 13:15:42;;;;;;;;;;;;;;;25.68;40.37;93492.53;5025951;28;9252;-62
2023/11/11 13:18:10;;;;;;;;;;;;;;;25.69;40.26;93493.97;5026974;28;8933;-62
2023/11/11 13:20:42;;;;;;;;;;;;;;;25.68;40.15;93484.25;5036188;28;6983;-62
2023/11/11 13:23:29;;;;;;;;;;;;;;;25.68;40.88;93498.03;5042199;28;9121;-62
2023/11/11 13:25:57;;;;;;;;;;;;;;;25.68;41.01;93487.00;5054978;28;7159;-62
2023/11/11 13:29:00;;;;;;;;;;;;;;;25.65;40.40;93488.06;5031794;28;7709;-61
2023/11/11 13:31:42;;;;;;;;;;;;;;;25.64;41.31;93496.88;4950398;28;7539;-62
2023/11/11 13:34:13;;;;;;;;;;;;;;;25.60;40.71;93491.66;4979079;28;8022;-62
2023/11/11 13:37:11;;;;;;;;;;;;;;;25.65;41.07;93504.59;4948374;28;7131;-62
2023/11/11 13:39:48;;;;;;;;;;;;;;;25.65;40.85;93503.84;4852557;29;9143;-62
2023/11/11 13:42:18;;;;;;;;;;;;;;;25.58;41.37;93499.00;4848238;29;7023;-63
2023/11/11 13:45:20;;;;;;;;;;;;;;;25.60;41.01;93508.19;4842584;29;7006;-62
2023/11/11 13:48:00;;;;;;;;;;;;;;;25.61;40.78;93515.19;4855995;29;7379;-63
2023/11/11 13:50:58;;;;;;;;;;;;;;;25.61;40.95;93506.94;4854142;29;7260;-63
2023/11/11 13:53:44;;;;;;;;;;;;;;;25.61;40.67;93503.44;4857802;29;6994;-62
2023/11/11 13:56:11;;;;;;;;;;;;;;;25.61;39.46;93508.94;4854606;29;7592;-62
2023/11/11 13:59:08;;;;;;;;;;;;;;;25.57;39.39;93514.78;4862066;29;7078;-62
2023/11/11 14:01:34;;;;;;;;;;;;;;;25.55;39.30;93506.31;4845515;29;7207;-62
2023/11/11 14:04:33;;;;;;;;;;;;;;;25.54;39.36;93504.81;4846939;29;7054;-63
2023/11/11 14:07:07;;;;;;;;;;;;;;;25.54;39.79;93499.31;4862947;29;7334;-62
2023/11/11 14:09:44;;;;;;;;;;;;;;;25.60;39.64;93504.72;4885335;29;9135;-63
2023/11/11 14:12:51;;;;;;;;;;;;;;;25.64;39.02;93505.88;4870024;29;7175;-66